createdAt,value
2024-05-09T00:00:29.642Z,1015.40
2024-05-09T00:00:46.529Z,1015.42
2024-05-09T00:01:07.719Z,1015.40
2024-05-09T00:01:28.809Z,1015.40
2024-05-09T00:01:49.883Z,1015.42
2024-05-09T00:02:10.986Z,1015.42
2024-05-09T00:02:32.088Z,1015.42
2024-05-09T00:02:53.200Z,1015.42
2024-05-09T00:03:14.335Z,1015.40
2024-05-09T00:03:35.422Z,1015.44
2024-05-09T00:03:56.510Z,1015.42
2024-05-09T00:04:17.583Z,1015.42
2024-05-09T00:04:38.688Z,1015.42
2024-05-09T00:04:59.783Z,1015.42
2024-05-09T00:05:21.091Z,1015.42
2024-05-09T00:05:42.863Z,1015.44
2024-05-09T00:06:04.327Z,1015.42
2024-05-09T00:06:25.456Z,1015.42
2024-05-09T00:06:46.525Z,1015.44
2024-05-09T00:07:07.592Z,1015.44
2024-05-09T00:07:28.625Z,1015.44
2024-05-09T00:07:49.714Z,1015.42
2024-05-09T00:08:11.078Z,1015.44
2024-05-09T00:08:32.498Z,1015.42
2024-05-09T00:08:53.641Z,1015.44
2024-05-09T00:09:14.700Z,1015.45
2024-05-09T00:09:35.768Z,1015.44
2024-05-09T00:09:56.813Z,1015.44
2024-05-09T00:10:25.400Z,1015.44
2024-05-09T00:10:45.103Z,1015.45
2024-05-09T00:11:06.294Z,1015.45
2024-05-09T00:11:27.519Z,1015.40
2024-05-09T00:11:48.834Z,1015.40
2024-05-09T00:12:10.145Z,1015.40
2024-05-09T00:12:31.287Z,1015.40
2024-05-09T00:12:52.332Z,1015.42
2024-05-09T00:13:13.406Z,1015.42
2024-05-09T00:13:34.457Z,1015.42
2024-05-09T00:13:55.533Z,1015.38
2024-05-09T00:14:16.648Z,1015.40
2024-05-09T00:14:37.744Z,1015.40
2024-05-09T00:14:58.791Z,1015.40
2024-05-09T00:15:19.852Z,1015.40
2024-05-09T00:15:40.915Z,1015.40
2024-05-09T00:16:02.015Z,1015.38
2024-05-09T00:16:23.099Z,1015.40
2024-05-09T00:16:44.190Z,1015.40
2024-05-09T00:17:05.289Z,1015.40
2024-05-09T00:17:26.486Z,1015.42
2024-05-09T00:17:47.761Z,1015.40
2024-05-09T00:18:09.175Z,1015.42
2024-05-09T00:18:30.604Z,1015.42
2024-05-09T00:18:51.773Z,1015.40
2024-05-09T00:19:13.115Z,1015.42
2024-05-09T00:19:34.382Z,1015.42
2024-05-09T00:19:55.446Z,1015.42
2024-05-09T00:20:20.665Z,1015.38
2024-05-09T00:20:43.493Z,1015.42
2024-05-09T00:21:04.671Z,1015.44
2024-05-09T00:21:25.741Z,1015.44
2024-05-09T00:21:46.785Z,1015.42
2024-05-09T00:22:07.828Z,1015.42
2024-05-09T00:22:28.880Z,1015.42
2024-05-09T00:22:49.964Z,1015.44
2024-05-09T00:23:12.212Z,1015.44
2024-05-09T00:23:34.167Z,1015.45
2024-05-09T00:23:55.322Z,1015.44
2024-05-09T00:24:16.335Z,1015.44
2024-05-09T00:24:37.391Z,1015.45
2024-05-09T00:24:58.447Z,1015.42
2024-05-09T00:25:19.498Z,1015.44
2024-05-09T00:25:40.556Z,1015.45
2024-05-09T00:26:01.659Z,1015.47
2024-05-09T00:26:22.900Z,1015.47
2024-05-09T00:26:43.978Z,1015.47
2024-05-09T00:27:05.027Z,1015.47
2024-05-09T00:27:26.079Z,1015.45
2024-05-09T00:27:47.130Z,1015.49
2024-05-09T00:28:08.192Z,1015.49
2024-05-09T00:28:29.263Z,1015.45
2024-05-09T00:28:50.352Z,1015.44
2024-05-09T00:29:11.457Z,1015.45
2024-05-09T00:29:32.554Z,1015.45
2024-05-09T00:29:53.571Z,1015.45
2024-05-09T00:30:21.555Z,1015.44
2024-05-09T00:30:41.693Z,1015.45
2024-05-09T00:31:02.732Z,1015.45
2024-05-09T00:31:23.828Z,1015.44
2024-05-09T00:31:44.985Z,1015.44
2024-05-09T00:32:06.111Z,1015.42
2024-05-09T00:32:27.294Z,1015.42
2024-05-09T00:32:48.546Z,1015.40
2024-05-09T00:33:10.940Z,1015.40
2024-05-09T00:33:32.884Z,1015.42
2024-05-09T00:33:54.055Z,1015.42
2024-05-09T00:34:15.264Z,1015.40
2024-05-09T00:34:36.351Z,1015.38
2024-05-09T00:34:57.482Z,1015.38
2024-05-09T00:35:18.742Z,1015.40
2024-05-09T00:35:40.069Z,1015.40
2024-05-09T00:36:01.216Z,1015.36
2024-05-09T00:36:22.259Z,1015.36
2024-05-09T00:36:43.379Z,1015.38
2024-05-09T00:37:04.486Z,1015.36
2024-05-09T00:37:25.533Z,1015.36
2024-05-09T00:37:46.684Z,1015.38
2024-05-09T00:38:07.849Z,1015.38
2024-05-09T00:38:28.995Z,1015.36
2024-05-09T00:38:50.069Z,1015.36
2024-05-09T00:39:11.117Z,1015.38
2024-05-09T00:39:32.183Z,1015.34
2024-05-09T00:39:53.234Z,1015.32
2024-05-09T00:40:22.452Z,1015.32
2024-05-09T00:40:43.147Z,1015.32
2024-05-09T00:41:04.936Z,1015.34
2024-05-09T00:41:26.031Z,1015.34
2024-05-09T00:41:47.220Z,1015.34
2024-05-09T00:42:08.327Z,1015.32
2024-05-09T00:42:29.373Z,1015.30
2024-05-09T00:42:50.430Z,1015.34
2024-05-09T00:43:12.380Z,1015.32
2024-05-09T00:43:34.459Z,1015.34
2024-05-09T00:43:55.496Z,1015.34
2024-05-09T00:44:16.675Z,1015.34
2024-05-09T00:44:37.768Z,1015.34
2024-05-09T00:44:58.807Z,1015.34
2024-05-09T00:45:19.866Z,1015.34
2024-05-09T00:45:40.974Z,1015.34
2024-05-09T00:46:02.090Z,1015.34
2024-05-09T00:46:23.146Z,1015.34
2024-05-09T00:46:44.241Z,1015.34
2024-05-09T00:47:05.393Z,1015.32
2024-05-09T00:47:26.779Z,1015.34
2024-05-09T00:47:48.149Z,1015.36
2024-05-09T00:48:10.599Z,1015.36
2024-05-09T00:48:32.964Z,1015.34
2024-05-09T00:48:54.225Z,1015.34
2024-05-09T00:49:15.334Z,1015.36
2024-05-09T00:49:36.510Z,1015.36
2024-05-09T00:49:57.641Z,1015.36
2024-05-09T00:50:23.044Z,1015.36
2024-05-09T00:50:45.779Z,1015.38
2024-05-09T00:51:06.858Z,1015.34
2024-05-09T00:51:27.906Z,1015.34
2024-05-09T00:51:48.969Z,1015.34
2024-05-09T00:52:10.095Z,1015.34
2024-05-09T00:52:31.175Z,1015.34
2024-05-09T00:52:52.263Z,1015.34
2024-05-09T00:53:13.424Z,1015.38
2024-05-09T00:53:34.628Z,1015.34
2024-05-09T00:53:55.745Z,1015.36
2024-05-09T00:54:16.821Z,1015.36
2024-05-09T00:54:37.866Z,1015.36
2024-05-09T00:54:58.941Z,1015.36
2024-05-09T00:55:19.999Z,1015.38
2024-05-09T00:55:41.058Z,1015.38
2024-05-09T00:56:02.143Z,1015.34
2024-05-09T00:56:23.209Z,1015.34
2024-05-09T00:56:44.272Z,1015.36
2024-05-09T00:57:05.357Z,1015.36
2024-05-09T00:57:26.467Z,1015.34
2024-05-09T00:57:47.560Z,1015.38
2024-05-09T00:58:08.637Z,1015.34
2024-05-09T00:58:29.687Z,1015.34
2024-05-09T00:58:50.796Z,1015.34
2024-05-09T00:59:11.937Z,1015.36
2024-05-09T00:59:33.070Z,1015.34
2024-05-09T00:59:54.128Z,1015.32
2024-05-09T01:00:25.963Z,1015.34
2024-05-09T01:00:42.226Z,1015.32
2024-05-09T01:01:03.309Z,1015.34
2024-05-09T01:01:24.608Z,1015.32
2024-05-09T01:01:45.775Z,1015.32
2024-05-09T01:02:07.054Z,1015.32
2024-05-09T01:02:28.239Z,1015.32
2024-05-09T01:02:49.369Z,1015.30
2024-05-09T01:03:12.485Z,1015.30
2024-05-09T01:03:35.206Z,1015.26
2024-05-09T01:03:56.588Z,1015.30
2024-05-09T01:04:17.686Z,1015.30
2024-05-09T01:04:38.781Z,1015.28
2024-05-09T01:04:59.951Z,1015.28
2024-05-09T01:05:21.037Z,1015.26
2024-05-09T01:05:42.579Z,1015.26
2024-05-09T01:06:04.022Z,1015.26
2024-05-09T01:06:25.058Z,1015.30
2024-05-09T01:06:46.115Z,1015.22
2024-05-09T01:07:07.173Z,1015.24
2024-05-09T01:07:28.236Z,1015.24
2024-05-09T01:07:49.348Z,1015.26
2024-05-09T01:08:10.914Z,1015.24
2024-05-09T01:08:32.225Z,1015.24
2024-05-09T01:08:53.334Z,1015.24
2024-05-09T01:09:14.447Z,1015.26
2024-05-09T01:09:35.506Z,1015.22
2024-05-09T01:09:56.560Z,1015.22
2024-05-09T01:10:24.208Z,1015.22
2024-05-09T01:10:46.130Z,1015.20
2024-05-09T01:11:09.113Z,1015.22
2024-05-09T01:11:30.225Z,1015.22
2024-05-09T01:11:51.452Z,1015.22
2024-05-09T01:12:12.677Z,1015.24
2024-05-09T01:12:33.891Z,1015.22
2024-05-09T01:12:55.240Z,1015.22
2024-05-09T01:13:16.316Z,1015.24
2024-05-09T01:13:37.362Z,1015.20
2024-05-09T01:13:58.458Z,1015.20
2024-05-09T01:14:19.525Z,1015.22
2024-05-09T01:14:40.561Z,1015.22
2024-05-09T01:15:01.645Z,1015.22
2024-05-09T01:15:22.665Z,1015.24
2024-05-09T01:15:43.726Z,1015.24
2024-05-09T01:16:04.775Z,1015.22
2024-05-09T01:16:25.826Z,1015.22
2024-05-09T01:16:46.922Z,1015.22
2024-05-09T01:17:08.021Z,1015.20
2024-05-09T01:17:29.284Z,1015.22
2024-05-09T01:17:50.590Z,1015.20
2024-05-09T01:18:13.224Z,1015.22
2024-05-09T01:18:34.973Z,1015.18
2024-05-09T01:18:56.130Z,1015.20
2024-05-09T01:19:17.454Z,1015.20
2024-05-09T01:19:38.657Z,1015.18
2024-05-09T01:19:59.891Z,1015.14
2024-05-09T01:20:31.752Z,1015.14
2024-05-09T01:20:47.981Z,1015.14
2024-05-09T01:21:09.056Z,1015.18
2024-05-09T01:21:30.098Z,1015.16
2024-05-09T01:21:51.170Z,1015.16
2024-05-09T01:22:12.205Z,1015.18
2024-05-09T01:22:33.262Z,1015.14
2024-05-09T01:22:54.352Z,1015.18
2024-05-09T01:23:16.602Z,1015.18
2024-05-09T01:23:37.975Z,1015.20
2024-05-09T01:23:59.058Z,1015.18
2024-05-09T01:24:20.110Z,1015.22
2024-05-09T01:24:41.151Z,1015.22
2024-05-09T01:25:02.255Z,1015.20
2024-05-09T01:25:23.302Z,1015.24
2024-05-09T01:25:44.638Z,1015.22
2024-05-09T01:26:05.889Z,1015.22
2024-05-09T01:26:27.004Z,1015.22
2024-05-09T01:26:48.050Z,1015.22
2024-05-09T01:27:09.096Z,1015.20
2024-05-09T01:27:30.142Z,1015.20
2024-05-09T01:27:51.210Z,1015.22
2024-05-09T01:28:12.253Z,1015.22
2024-05-09T01:28:33.355Z,1015.20
2024-05-09T01:28:54.512Z,1015.22
2024-05-09T01:29:15.634Z,1015.24
2024-05-09T01:29:36.781Z,1015.18
2024-05-09T01:29:57.854Z,1015.20
2024-05-09T01:30:24.332Z,1015.20
2024-05-09T01:30:45.893Z,1015.22
2024-05-09T01:31:06.942Z,1015.16
2024-05-09T01:31:28.041Z,1015.16
2024-05-09T01:31:49.112Z,1015.16
2024-05-09T01:32:10.364Z,1015.16
2024-05-09T01:32:31.687Z,1015.16
2024-05-09T01:32:53.014Z,1015.16
2024-05-09T01:33:14.661Z,1015.14
2024-05-09T01:33:36.013Z,1015.16
2024-05-09T01:33:57.538Z,1015.16
2024-05-09T01:34:18.681Z,1015.20
2024-05-09T01:34:39.711Z,1015.18
2024-05-09T01:35:00.853Z,1015.16
2024-05-09T01:35:22.095Z,1015.16
2024-05-09T01:35:43.458Z,1015.18
2024-05-09T01:36:04.541Z,1015.16
2024-05-09T01:36:25.605Z,1015.20
2024-05-09T01:36:46.664Z,1015.20
2024-05-09T01:37:07.727Z,1015.22
2024-05-09T01:37:28.781Z,1015.20
2024-05-09T01:37:49.877Z,1015.22
2024-05-09T01:38:10.961Z,1015.22
2024-05-09T01:38:32.152Z,1015.20
2024-05-09T01:38:53.358Z,1015.26
2024-05-09T01:39:14.442Z,1015.18
2024-05-09T01:39:35.520Z,1015.18
2024-05-09T01:39:56.586Z,1015.20
2024-05-09T01:40:22.125Z,1015.20
2024-05-09T01:40:44.674Z,1015.20
2024-05-09T01:41:05.758Z,1015.20
2024-05-09T01:41:26.889Z,1015.20
2024-05-09T01:41:48.004Z,1015.20
2024-05-09T01:42:09.090Z,1015.16
2024-05-09T01:42:30.123Z,1015.16
2024-05-09T01:42:51.197Z,1015.18
2024-05-09T01:43:12.464Z,1015.18
2024-05-09T01:43:33.516Z,1015.16
2024-05-09T01:43:54.674Z,1015.16
2024-05-09T01:44:15.782Z,1015.18
2024-05-09T01:44:37.157Z,1015.18
2024-05-09T01:44:58.214Z,1015.16
2024-05-09T01:45:19.277Z,1015.18
2024-05-09T01:45:40.892Z,1015.20
2024-05-09T01:46:02.151Z,1015.18
2024-05-09T01:46:23.221Z,1015.18
2024-05-09T01:46:44.279Z,1015.18
2024-05-09T01:47:05.352Z,1015.16
2024-05-09T01:47:26.769Z,1015.16
2024-05-09T01:47:48.300Z,1015.18
2024-05-09T01:48:10.439Z,1015.18
2024-05-09T01:48:32.137Z,1015.16
2024-05-09T01:48:53.368Z,1015.16
2024-05-09T01:49:14.755Z,1015.18
2024-05-09T01:49:36.179Z,1015.18
2024-05-09T01:49:57.360Z,1015.18
2024-05-09T01:50:22.538Z,1015.16
2024-05-09T01:50:45.437Z,1015.16
2024-05-09T01:51:06.606Z,1015.18
2024-05-09T01:51:27.674Z,1015.16
2024-05-09T01:51:48.743Z,1015.16
2024-05-09T01:52:09.818Z,1015.18
2024-05-09T01:52:30.854Z,1015.18
2024-05-09T01:52:51.995Z,1015.18
2024-05-09T01:53:13.838Z,1015.18
2024-05-09T01:53:35.573Z,1015.18
2024-05-09T01:53:56.626Z,1015.16
2024-05-09T01:54:17.716Z,1015.18
2024-05-09T01:54:38.986Z,1015.16
2024-05-09T01:55:02.007Z,1015.14
2024-05-09T01:55:24.389Z,1015.14
2024-05-09T01:55:45.482Z,1015.16
2024-05-09T01:56:06.630Z,1015.14
2024-05-09T01:56:27.761Z,1015.16
2024-05-09T01:56:48.883Z,1015.14
2024-05-09T01:57:09.933Z,1015.14
2024-05-09T01:57:30.992Z,1015.16
2024-05-09T01:57:52.064Z,1015.18
2024-05-09T01:58:13.087Z,1015.20
2024-05-09T01:58:34.154Z,1015.18
2024-05-09T01:58:55.254Z,1015.20
2024-05-09T01:59:16.355Z,1015.18
2024-05-09T01:59:37.692Z,1015.18
2024-05-09T01:59:58.968Z,1015.20
2024-05-09T02:00:30.212Z,1015.22
2024-05-09T02:00:47.014Z,1015.22
2024-05-09T02:01:08.098Z,1015.22
2024-05-09T02:01:29.241Z,1015.22
2024-05-09T02:01:57.715Z,1015.24
2024-05-09T02:02:19.242Z,1015.26
2024-05-09T02:02:40.446Z,1015.28
2024-05-09T02:03:02.026Z,1015.26
2024-05-09T02:03:23.510Z,1015.26
2024-05-09T02:03:44.911Z,1015.28
2024-05-09T02:04:06.551Z,1015.28
2024-05-09T02:04:28.107Z,1015.26
2024-05-09T02:04:49.320Z,1015.28
2024-05-09T02:05:10.869Z,1015.20
2024-05-09T02:05:32.187Z,1015.26
2024-05-09T02:05:53.307Z,1015.28
2024-05-09T02:06:14.508Z,1015.22
2024-05-09T02:06:35.565Z,1015.22
2024-05-09T02:06:56.643Z,1015.24
2024-05-09T02:07:17.731Z,1015.26
2024-05-09T02:07:38.845Z,1015.24
2024-05-09T02:07:59.941Z,1015.22
2024-05-09T02:08:21.534Z,1015.22
2024-05-09T02:08:42.921Z,1015.20
2024-05-09T02:09:03.967Z,1015.22
2024-05-09T02:09:25.023Z,1015.22
2024-05-09T02:09:46.087Z,1015.22
2024-05-09T02:10:13.776Z,1015.24
2024-05-09T02:10:34.348Z,1015.24
2024-05-09T02:10:55.540Z,1015.26
2024-05-09T02:11:16.630Z,1015.22
2024-05-09T02:11:37.767Z,1015.24
2024-05-09T02:11:59.080Z,1015.26
2024-05-09T02:12:20.283Z,1015.26
2024-05-09T02:12:41.348Z,1015.24
2024-05-09T02:13:02.398Z,1015.24
2024-05-09T02:13:23.462Z,1015.22
2024-05-09T02:13:44.550Z,1015.24
2024-05-09T02:14:05.625Z,1015.24
2024-05-09T02:14:26.885Z,1015.24
2024-05-09T02:14:47.954Z,1015.22
2024-05-09T02:15:09.089Z,1015.26
2024-05-09T02:15:30.177Z,1015.26
2024-05-09T02:15:51.239Z,1015.26
2024-05-09T02:16:12.312Z,1015.20
2024-05-09T02:16:33.345Z,1015.22
2024-05-09T02:16:54.438Z,1015.24
2024-05-09T02:17:15.658Z,1015.24
2024-05-09T02:17:36.894Z,1015.26
2024-05-09T02:17:58.134Z,1015.28
2024-05-09T02:18:19.401Z,1015.30
2024-05-09T02:18:40.659Z,1015.26
2024-05-09T02:19:01.888Z,1015.26
2024-05-09T02:19:23.183Z,1015.28
2024-05-09T02:19:44.396Z,1015.26
2024-05-09T02:20:06.255Z,1015.26
2024-05-09T02:20:33.876Z,1015.28
2024-05-09T02:20:54.681Z,1015.30
2024-05-09T02:21:15.747Z,1015.28
2024-05-09T02:21:36.785Z,1015.28
2024-05-09T02:21:57.838Z,1015.28
2024-05-09T02:22:18.888Z,1015.26
2024-05-09T02:22:39.940Z,1015.28
2024-05-09T02:23:01.063Z,1015.28
2024-05-09T02:23:22.235Z,1015.28
2024-05-09T02:23:43.364Z,1015.32
2024-05-09T02:24:04.381Z,1015.28
2024-05-09T02:24:25.435Z,1015.28
2024-05-09T02:24:46.482Z,1015.28
2024-05-09T02:25:07.634Z,1015.28
2024-05-09T02:25:28.712Z,1015.28
2024-05-09T02:25:49.816Z,1015.30
2024-05-09T02:26:10.925Z,1015.30
2024-05-09T02:26:32.075Z,1015.28
2024-05-09T02:26:53.099Z,1015.28
2024-05-09T02:27:14.148Z,1015.28
2024-05-09T02:27:35.253Z,1015.24
2024-05-09T02:27:56.310Z,1015.28
2024-05-09T02:28:17.379Z,1015.28
2024-05-09T02:28:38.438Z,1015.26
2024-05-09T02:28:59.536Z,1015.28
2024-05-09T02:29:20.637Z,1015.28
2024-05-09T02:29:41.700Z,1015.28
2024-05-09T02:30:02.858Z,1015.26
2024-05-09T02:30:34.892Z,1015.32
2024-05-09T02:30:51.604Z,1015.32
2024-05-09T02:31:12.687Z,1015.30
2024-05-09T02:31:33.737Z,1015.28
2024-05-09T02:31:54.904Z,1015.30
2024-05-09T02:32:16.070Z,1015.30
2024-05-09T02:32:37.268Z,1015.32
2024-05-09T02:32:58.599Z,1015.34
2024-05-09T02:33:20.049Z,1015.30
2024-05-09T02:33:41.337Z,1015.32
2024-05-09T02:34:02.639Z,1015.30
2024-05-09T02:34:23.776Z,1015.30
2024-05-09T02:34:44.893Z,1015.30
2024-05-09T02:35:06.020Z,1015.28
2024-05-09T02:35:27.196Z,1015.30
2024-05-09T02:35:48.306Z,1015.30
2024-05-09T02:36:09.379Z,1015.28
2024-05-09T02:36:30.470Z,1015.32
2024-05-09T02:36:51.519Z,1015.30
2024-05-09T02:37:12.564Z,1015.32
2024-05-09T02:37:33.614Z,1015.32
2024-05-09T02:37:54.699Z,1015.26
2024-05-09T02:38:15.806Z,1015.32
2024-05-09T02:38:36.978Z,1015.30
2024-05-09T02:38:58.071Z,1015.28
2024-05-09T02:39:19.146Z,1015.28
2024-05-09T02:39:40.221Z,1015.32
2024-05-09T02:40:01.272Z,1015.30
2024-05-09T02:40:29.209Z,1015.28
2024-05-09T02:40:49.330Z,1015.28
2024-05-09T02:41:10.669Z,1015.28
2024-05-09T02:41:31.869Z,1015.30
2024-05-09T02:41:52.907Z,1015.32
2024-05-09T02:42:13.964Z,1015.28
2024-05-09T02:42:35.021Z,1015.28
2024-05-09T02:42:56.087Z,1015.28
2024-05-09T02:43:17.152Z,1015.30
2024-05-09T02:43:38.201Z,1015.30
2024-05-09T02:43:59.303Z,1015.28
2024-05-09T02:44:20.375Z,1015.30
2024-05-09T02:44:41.434Z,1015.32
2024-05-09T02:45:02.480Z,1015.28
2024-05-09T02:45:23.531Z,1015.30
2024-05-09T02:45:44.592Z,1015.30
2024-05-09T02:46:05.618Z,1015.28
2024-05-09T02:46:26.725Z,1015.30
2024-05-09T02:46:47.845Z,1015.30
2024-05-09T02:47:09.054Z,1015.32
2024-05-09T02:47:30.288Z,1015.28
2024-05-09T02:47:51.644Z,1015.26
2024-05-09T02:48:13.958Z,1015.30
2024-05-09T02:48:35.526Z,1015.28
2024-05-09T02:48:56.720Z,1015.28
2024-05-09T02:49:17.917Z,1015.28
2024-05-09T02:49:39.135Z,1015.26
2024-05-09T02:50:00.255Z,1015.28
2024-05-09T02:50:29.752Z,1015.28
2024-05-09T02:50:48.430Z,1015.30
2024-05-09T02:51:09.575Z,1015.32
2024-05-09T02:51:30.686Z,1015.32
2024-05-09T02:51:51.787Z,1015.32
2024-05-09T02:52:12.831Z,1015.32
2024-05-09T02:52:33.939Z,1015.32
2024-05-09T02:52:54.987Z,1015.28
2024-05-09T02:53:16.069Z,1015.28
2024-05-09T02:53:37.419Z,1015.30
2024-05-09T02:53:58.534Z,1015.28
2024-05-09T02:54:19.605Z,1015.30
2024-05-09T02:54:40.657Z,1015.30
2024-05-09T02:55:01.711Z,1015.30
2024-05-09T02:55:22.770Z,1015.30
2024-05-09T02:55:43.810Z,1015.32
2024-05-09T02:56:04.941Z,1015.28
2024-05-09T02:56:26.080Z,1015.28
2024-05-09T02:56:47.181Z,1015.28
2024-05-09T02:57:08.252Z,1015.26
2024-05-09T02:57:29.325Z,1015.28
2024-05-09T02:57:50.364Z,1015.24
2024-05-09T02:58:11.441Z,1015.26
2024-05-09T02:58:32.483Z,1015.24
2024-05-09T02:58:53.602Z,1015.26
2024-05-09T02:59:14.710Z,1015.26
2024-05-09T02:59:35.814Z,1015.24
2024-05-09T02:59:56.872Z,1015.24
2024-05-09T03:00:22.839Z,1015.26
2024-05-09T03:00:44.914Z,1015.26
2024-05-09T03:01:06.051Z,1015.24
2024-05-09T03:01:27.127Z,1015.26
2024-05-09T03:01:48.268Z,1015.22
2024-05-09T03:02:09.569Z,1015.24
2024-05-09T03:02:30.855Z,1015.24
2024-05-09T03:02:52.100Z,1015.22
2024-05-09T03:03:15.187Z,1015.24
2024-05-09T03:03:37.205Z,1015.26
2024-05-09T03:03:58.497Z,1015.24
2024-05-09T03:04:19.655Z,1015.22
2024-05-09T03:04:40.744Z,1015.24
2024-05-09T03:05:01.804Z,1015.22
2024-05-09T03:05:22.880Z,1015.22
2024-05-09T03:05:44.504Z,1015.22
2024-05-09T03:06:05.948Z,1015.26
2024-05-09T03:06:27.000Z,1015.24
2024-05-09T03:06:48.058Z,1015.22
2024-05-09T03:07:09.150Z,1015.22
2024-05-09T03:07:30.244Z,1015.24
2024-05-09T03:07:51.333Z,1015.24
2024-05-09T03:08:12.614Z,1015.24
2024-05-09T03:08:34.029Z,1015.24
2024-05-09T03:08:55.204Z,1015.24
2024-05-09T03:09:16.249Z,1015.28
2024-05-09T03:09:37.278Z,1015.24
2024-05-09T03:09:58.337Z,1015.24
2024-05-09T03:10:25.545Z,1015.24
2024-05-09T03:10:46.383Z,1015.22
2024-05-09T03:11:07.594Z,1015.26
2024-05-09T03:11:28.819Z,1015.26
2024-05-09T03:11:50.087Z,1015.24
2024-05-09T03:12:11.407Z,1015.24
2024-05-09T03:12:33.584Z,1015.26
2024-05-09T03:12:55.564Z,1015.22
2024-05-09T03:13:16.850Z,1015.26
2024-05-09T03:13:37.897Z,1015.26
2024-05-09T03:13:58.985Z,1015.24
2024-05-09T03:14:20.069Z,1015.24
2024-05-09T03:14:41.179Z,1015.22
2024-05-09T03:15:02.217Z,1015.24
2024-05-09T03:15:23.266Z,1015.26
2024-05-09T03:15:44.616Z,1015.24
2024-05-09T03:16:05.813Z,1015.26
2024-05-09T03:16:26.880Z,1015.30
2024-05-09T03:16:47.940Z,1015.22
2024-05-09T03:17:09.039Z,1015.22
2024-05-09T03:17:30.411Z,1015.28
2024-05-09T03:17:51.862Z,1015.24
2024-05-09T03:18:13.596Z,1015.24
2024-05-09T03:18:34.996Z,1015.24
2024-05-09T03:18:56.215Z,1015.24
2024-05-09T03:19:17.471Z,1015.26
2024-05-09T03:19:38.607Z,1015.26
2024-05-09T03:19:59.698Z,1015.24
2024-05-09T03:20:24.263Z,1015.24
2024-05-09T03:20:47.796Z,1015.26
2024-05-09T03:21:09.051Z,1015.26
2024-05-09T03:21:30.095Z,1015.26
2024-05-09T03:21:51.213Z,1015.26
2024-05-09T03:22:12.324Z,1015.26
2024-05-09T03:22:33.404Z,1015.28
2024-05-09T03:22:56.962Z,1015.30
2024-05-09T03:23:18.171Z,1015.32
2024-05-09T03:23:39.357Z,1015.30
2024-05-09T03:24:00.487Z,1015.32
2024-05-09T03:24:21.528Z,1015.30
2024-05-09T03:24:42.572Z,1015.32
2024-05-09T03:25:03.628Z,1015.32
2024-05-09T03:25:24.679Z,1015.32
2024-05-09T03:25:45.794Z,1015.36
2024-05-09T03:26:06.879Z,1015.38
2024-05-09T03:26:28.030Z,1015.34
2024-05-09T03:26:49.112Z,1015.32
2024-05-09T03:27:10.161Z,1015.34
2024-05-09T03:27:31.216Z,1015.36
2024-05-09T03:27:52.313Z,1015.36
2024-05-09T03:28:13.601Z,1015.34
2024-05-09T03:28:34.634Z,1015.34
2024-05-09T03:28:55.710Z,1015.36
2024-05-09T03:29:16.802Z,1015.36
2024-05-09T03:29:37.878Z,1015.36
2024-05-09T03:29:58.921Z,1015.36
2024-05-09T03:30:29.576Z,1015.38
2024-05-09T03:30:46.960Z,1015.36
2024-05-09T03:31:08.015Z,1015.38
2024-05-09T03:31:29.094Z,1015.36
2024-05-09T03:31:50.252Z,1015.36
2024-05-09T03:32:11.456Z,1015.36
2024-05-09T03:32:32.566Z,1015.34
2024-05-09T03:32:53.792Z,1015.36
2024-05-09T03:33:15.969Z,1015.34
2024-05-09T03:33:37.687Z,1015.34
2024-05-09T03:33:59.023Z,1015.36
2024-05-09T03:34:20.176Z,1015.36
2024-05-09T03:34:41.197Z,1015.36
2024-05-09T03:35:02.346Z,1015.36
2024-05-09T03:35:23.574Z,1015.36
2024-05-09T03:35:44.682Z,1015.36
2024-05-09T03:36:08.969Z,1015.36
2024-05-09T03:36:31.522Z,1015.34
2024-05-09T03:36:52.579Z,1015.36
2024-05-09T03:37:13.625Z,1015.36
2024-05-09T03:37:34.686Z,1015.34
2024-05-09T03:37:55.806Z,1015.32
2024-05-09T03:38:17.153Z,1015.34
2024-05-09T03:38:38.474Z,1015.34
2024-05-09T03:38:59.589Z,1015.36
2024-05-09T03:39:20.682Z,1015.36
2024-05-09T03:39:41.715Z,1015.38
2024-05-09T03:40:03.023Z,1015.30
2024-05-09T03:40:26.808Z,1015.32
2024-05-09T03:40:51.441Z,1015.32
2024-05-09T03:41:12.772Z,1015.32
2024-05-09T03:41:33.868Z,1015.32
2024-05-09T03:41:54.923Z,1015.34
2024-05-09T03:42:15.979Z,1015.30
2024-05-09T03:42:37.034Z,1015.30
2024-05-09T03:42:58.125Z,1015.32
2024-05-09T03:43:19.399Z,1015.34
2024-05-09T03:43:40.637Z,1015.32
2024-05-09T03:44:01.734Z,1015.30
2024-05-09T03:44:22.855Z,1015.32
2024-05-09T03:44:43.937Z,1015.32
2024-05-09T03:45:05.000Z,1015.36
2024-05-09T03:45:26.045Z,1015.34
2024-05-09T03:45:47.102Z,1015.32
2024-05-09T03:46:08.178Z,1015.32
2024-05-09T03:46:29.211Z,1015.36
2024-05-09T03:46:50.278Z,1015.34
2024-05-09T03:47:11.477Z,1015.34
2024-05-09T03:47:32.639Z,1015.34
2024-05-09T03:47:53.990Z,1015.36
2024-05-09T03:48:15.580Z,1015.34
2024-05-09T03:48:36.926Z,1015.36
2024-05-09T03:48:58.054Z,1015.38
2024-05-09T03:49:19.219Z,1015.38
2024-05-09T03:49:40.660Z,1015.36
2024-05-09T03:50:01.830Z,1015.36
2024-05-09T03:50:29.950Z,1015.36
2024-05-09T03:50:49.863Z,1015.38
2024-05-09T03:51:11.108Z,1015.38
2024-05-09T03:51:32.292Z,1015.40
2024-05-09T03:51:53.340Z,1015.38
2024-05-09T03:52:14.406Z,1015.34
2024-05-09T03:52:35.472Z,1015.38
2024-05-09T03:52:56.534Z,1015.38
2024-05-09T03:53:17.669Z,1015.38
2024-05-09T03:53:38.782Z,1015.38
2024-05-09T03:53:59.902Z,1015.38
2024-05-09T03:54:20.968Z,1015.38
2024-05-09T03:54:42.007Z,1015.38
2024-05-09T03:55:03.069Z,1015.40
2024-05-09T03:55:24.120Z,1015.38
2024-05-09T03:55:45.377Z,1015.36
2024-05-09T03:56:06.544Z,1015.36
2024-05-09T03:56:27.722Z,1015.36
2024-05-09T03:56:48.798Z,1015.38
2024-05-09T03:57:09.866Z,1015.38
2024-05-09T03:57:30.975Z,1015.38
2024-05-09T03:57:51.984Z,1015.38
2024-05-09T03:58:13.210Z,1015.38
2024-05-09T03:58:34.284Z,1015.38
2024-05-09T03:58:55.584Z,1015.36
2024-05-09T03:59:16.702Z,1015.36
2024-05-09T03:59:37.816Z,1015.40
2024-05-09T03:59:58.843Z,1015.36
2024-05-09T04:00:30.055Z,1015.36
2024-05-09T04:00:46.927Z,1015.36
2024-05-09T04:01:08.026Z,1015.38
2024-05-09T04:01:29.087Z,1015.36
2024-05-09T04:01:50.237Z,1015.38
2024-05-09T04:02:11.430Z,1015.36
2024-05-09T04:02:32.672Z,1015.38
2024-05-09T04:02:53.914Z,1015.36
2024-05-09T04:03:15.428Z,1015.40
2024-05-09T04:03:36.874Z,1015.36
2024-05-09T04:03:58.059Z,1015.38
2024-05-09T04:04:19.120Z,1015.36
2024-05-09T04:04:40.223Z,1015.38
2024-05-09T04:05:01.358Z,1015.38
2024-05-09T04:05:22.499Z,1015.38
2024-05-09T04:05:44.339Z,1015.40
2024-05-09T04:06:05.763Z,1015.40
2024-05-09T04:06:26.819Z,1015.36
2024-05-09T04:06:47.865Z,1015.36
2024-05-09T04:07:08.922Z,1015.42
2024-05-09T04:07:29.978Z,1015.36
2024-05-09T04:07:51.067Z,1015.38
2024-05-09T04:08:12.300Z,1015.34
2024-05-09T04:08:33.514Z,1015.36
2024-05-09T04:08:54.780Z,1015.36
2024-05-09T04:09:15.877Z,1015.36
2024-05-09T04:09:36.930Z,1015.38
2024-05-09T04:09:57.986Z,1015.36
2024-05-09T04:10:27.690Z,1015.40
2024-05-09T04:10:46.159Z,1015.38
2024-05-09T04:11:07.314Z,1015.38
2024-05-09T04:11:28.496Z,1015.38
2024-05-09T04:11:49.739Z,1015.40
2024-05-09T04:12:10.920Z,1015.38
2024-05-09T04:12:32.124Z,1015.40
2024-05-09T04:12:53.207Z,1015.40
2024-05-09T04:13:14.314Z,1015.36
2024-05-09T04:13:35.358Z,1015.36
2024-05-09T04:13:56.462Z,1015.38
2024-05-09T04:14:17.550Z,1015.42
2024-05-09T04:14:38.712Z,1015.40
2024-05-09T04:14:59.957Z,1015.38
2024-05-09T04:15:21.093Z,1015.42
2024-05-09T04:15:42.126Z,1015.40
2024-05-09T04:16:03.176Z,1015.42
2024-05-09T04:16:24.227Z,1015.40
2024-05-09T04:16:45.335Z,1015.40
2024-05-09T04:17:06.514Z,1015.44
2024-05-09T04:17:27.736Z,1015.44
2024-05-09T04:17:49.490Z,1015.44
2024-05-09T04:18:10.803Z,1015.45
2024-05-09T04:18:31.998Z,1015.42
2024-05-09T04:18:53.133Z,1015.45
2024-05-09T04:19:14.603Z,1015.45